DW4786 Weather Reports


Display with metric or nautical units.
time (UTC)temp
F
wind
direction
speed
MPH
gust
MPH
rain 1hr
in
rain 24hr
in
rain mn
in
humidity
%
barometer
mb
20180919181005 81 51 7.0 21.0 0.00 0.00 0.00 24 1016.7
20180919180506 81 61 4.0 13.0 0.00 0.00 0.00 22 1016.8
20180919180006 81 49 1.0 8.0 0.00 0.00 0.00 23 1016.8
20180919175506 80 38 3.0 18.0 0.00 0.00 0.00 24 1016.5
20180919175006 80 35 3.0 18.0 0.00 0.00 0.00 23 1016.9
20180919174506 81 55 2.0 12.0 0.00 0.00 0.00 21 1016.9
20180919174006 81 45 4.0 12.0 0.00 0.00 0.00 19 1016.7
20180919173507 82 30 3.0 10.0 0.00 0.00 0.00 19 1016.8
20180919173006 82 28 2.0 9.0 0.00 0.00 0.00 19 1016.8
20180919172506 81 29 2.0 10.0 0.00 0.00 0.00 18 1016.8
20180919172006 81 28 2.0 10.0 0.00 0.00 0.00 18 1016.8
20180919171506 81 28 2.0 7.0 0.00 0.00 0.00 19 1016.8
20180919171005 81 22 3.0 9.0 0.00 0.00 0.00 18 1017.0
20180919170506 81 23 3.0 9.0 0.00 0.00 0.00 19 1017.2
20180919170006 81 38 3.0 9.0 0.00 0.00 0.00 18 1016.8
20180919165506 81 36 2.0 9.0 0.00 0.00 0.00 18 1017.0
20180919165005 81 16 1.0 8.0 0.00 0.00 0.00 19 1017.1
20180919164506 80 8 0.0 4.0 0.00 0.00 0.00 20 1017.1
20180919164006 80 8 0.0 3.0 0.00 0.00 0.00 20 1017.0
20180919163505 79 9 1.0 6.0 0.00 0.00 0.00 19 1017.0
20180919163005 80 11 1.0 8.0 0.00 0.00 0.00 19 1017.0
20180919162506 80 11 1.0 8.0 0.00 0.00 0.00 20 1017.0
20180919162006 80 359 1.0 6.0 0.00 0.00 0.00 19 1017.0
20180919161506 80 345 0.0 4.0 0.00 0.00 0.00 19 1016.9
20180919161005 78 345 0.0 2.0 0.00 0.00 0.00 21 1017.1
20180919160506 78 0 0.0 0.0 0.00 0.00 0.00 21 1017.1
20180919160006 78 270 0.0 2.0 0.00 0.00 0.00 20 1017.1
20180919155506 78 257 1.0 4.0 0.00 0.00 0.00 19 1017.0
20180919155005 78 255 1.0 4.0 0.00 0.00 0.00 21 1017.0
20180919154505 77 256 0.0 4.0 0.00 0.00 0.00 21 1017.0
20180919154006 76 265 0.0 1.0 0.00 0.00 0.00 22 1017.0
20180919153506 76 264 0.0 4.0 0.00 0.00 0.00 22 1017.0
20180919153005 75 262 1.0 4.0 0.00 0.00 0.00 22 1017.0
20180919152505 74 260 1.0 4.0 0.00 0.00 0.00 23 1017.0
20180919152006 73 0 0.0 0.0 0.00 0.00 0.00 26 1017.0
20180919151506 73 0 0.0 0.0 0.00 0.00 0.00 26 1017.2
20180919151005 72 234 0.0 2.0 0.00 0.00 0.00 26 1017.4
20180919150506 72 237 1.0 4.0 0.00 0.00 0.00 26 1017.1
20180919150006 72 240 1.0 4.0 0.00 0.00 0.00 26 1017.3
20180919145507 71 245 1.0 5.0 0.00 0.00 0.00 27 1017.2
20180919145005 70 250 1.0 5.0 0.00 0.00 0.00 30 1016.8
20180919144506 67 0 0.0 0.0 0.00 0.00 0.00 32 1016.7
20180919144006 66 0 0.0 0.0 0.00 0.00 0.00 36 1017.1
20180919143506 65 0 0.0 0.0 0.00 0.00 0.00 40 1017.0
20180919143005 64 0 0.0 0.0 0.00 0.00 0.00 44 1017.0
20180919142505 64 0 0.0 0.0 0.00 0.00 0.00 44 1017.1
20180919142006 64 0 0.0 0.0 0.00 0.00 0.00 45 1017.0
20180919141506 63 0 0.0 0.0 0.00 0.00 0.00 45 1016.8
20180919141005 63 0 0.0 0.0 0.00 0.00 0.00 44 1016.5
20180919140505 63 0 0.0 0.0 0.00 0.00 0.00 43 1016.7
20180919140006 63 0 0.0 0.0 0.00 0.00 0.00 43 1016.8
20180919135506 63 0 0.0 0.0 0.00 0.00 0.00 44 1016.7
20180919135006 63 0 0.0 0.0 0.00 0.00 0.00 44 1016.6
20180919134506 62 0 0.0 0.0 0.00 0.00 0.00 43 1016.5
20180919134005 62 0 0.0 0.0 0.00 0.00 0.00 42 1016.8
20180919133506 62 0 0.0 0.0 0.00 0.00 0.00 43 1016.8
20180919133006 62 0 0.0 0.0 0.00 0.00 0.00 42 1016.9
20180919132505 63 0 0.0 0.0 0.00 0.00 0.00 42 1016.7
20180919132005 63 59 1.0 6.0 0.00 0.00 0.00 41 1016.5
20180919131506 64 61 1.0 6.0 0.00 0.00 0.00 40 1016.6
20180919131006 66 247 0.0 3.0 0.00 0.00 0.00 37 1016.5
20180919130506 65 248 1.0 7.0 0.00 0.00 0.00 38 1016.3
20180919130005 65 243 1.0 7.0 0.00 0.00 0.00 38 1016.2
20180919125506 65 232 1.0 5.0 0.00 0.00 0.00 37 1016.3
20180919125006 65 229 1.0 6.0 0.00 0.00 0.00 36 1016.1
20180919124505 65 224 2.0 6.0 0.00 0.00 0.00 36 1016.1
20180919124005 65 221 1.0 6.0 0.00 0.00 0.00 37 1016.1
20180919123506 65 238 0.0 4.0 0.00 0.00 0.00 37 1016.0
20180919123006 66 260 1.0 4.0 0.00 0.00 0.00 37 1015.9
20180919122505 66 233 3.0 9.0 0.00 0.00 0.00 36 1015.7
20180919122005 66 222 4.0 9.0 0.00 0.00 0.00 36 1016.0
20180919121506 65 222 4.0 7.0 0.00 0.00 0.00 37 1016.1
20180919121006 64 227 2.0 7.0 0.00 0.00 0.00 37 1015.9
20180919120505 63 232 0.0 5.0 0.00 0.00 0.00 39 1015.9
20180919120005 63 239 0.0 4.0 0.00 0.00 0.00 39 1015.9
20180919115506 63 240 0.0 4.0 0.00 0.00 0.00 40 1016.0
20180919115005 64 262 0.0 2.0 0.00 0.00 0.00 40 1015.9
20180919114505 64 262 0.0 2.0 0.00 0.00 0.00 39 1015.8
20180919114006 64 226 0.0 5.0 0.00 0.00 0.00 39 1016.0
20180919113507 64 216 0.0 5.0 0.00 0.00 0.00 39 1015.8
20180919113005 64 0 0.0 0.0 0.00 0.00 0.00 40 1015.6
20180919112506 64 0 0.0 0.0 0.00 0.00 0.00 40 1015.7
20180919112006 64 0 0.0 0.0 0.00 0.00 0.00 39 1015.7
20180919111506 64 264 0.0 3.0 0.00 0.00 0.00 40 1015.6
20180919111008 64 261 0.0 4.0 0.00 0.00 0.00 41 1015.6
20180919110505 64 251 1.0 5.0 0.00 0.00 0.00 41 1015.6
20180919110006 64 250 3.0 7.0 0.00 0.00 0.00 41 1015.6
20180919105506 64 251 3.0 7.0 0.00 0.00 0.00 41 1015.6
20180919105005 64 251 3.0 7.0 0.00 0.00 0.00 41 1015.6
20180919104506 64 252 4.0 8.0 0.00 0.00 0.00 41 1015.5
20180919104005 64 257 3.0 8.0 0.00 0.00 0.00 42 1015.4
20180919103507 63 262 3.0 6.0 0.00 0.00 0.00 43 1015.4
20180919103006 63 263 3.0 6.0 0.00 0.00 0.00 44 1015.4
20180919102506 62 264 3.0 6.0 0.00 0.00 0.00 45 1015.5
20180919102005 62 266 3.0 4.0 0.00 0.00 0.00 45 1015.4
20180919101506 62 266 1.0 4.0 0.00 0.00 0.00 45 1015.5
20180919101006 63 0 0.0 0.0 0.00 0.00 0.00 45 1015.5
20180919100506 64 0 0.0 0.0 0.00 0.00 0.00 44 1015.5
20180919100005 64 0 0.0 0.0 0.00 0.00 0.00 43 1015.5
20180919095506 65 252 0.0 5.0 0.00 0.00 0.00 43 1015.6
20180919095006 65 252 0.0 5.0 0.00 0.00 0.00 43 1015.6
20180919094505 65 247 0.0 4.0 0.00 0.00 0.00 43 1015.6
20180919094007 65 244 1.0 4.0 0.00 0.00 0.00 42 1015.6
20180919093506 65 242 1.0 7.0 0.00 0.00 0.00 42 1015.7
20180919093006 65 240 1.0 7.0 0.00 0.00 0.00 42 1015.6
20180919092506 65 232 0.0 3.0 0.00 0.00 0.00 43 1015.6
20180919092006 65 245 0.0 3.0 0.00 0.00 0.00 43 1015.6
20180919091006 65 253 2.0 5.0 0.00 0.00 0.00 42 1015.7
20180919090505 66 253 2.0 7.0 0.00 0.00 0.00 42 1015.7
20180919090006 66 250 2.0 7.0 0.00 0.00 0.00 42 1015.7
20180919085506 66 237 1.0 6.0 0.00 0.00 0.00 42 1015.7
20180919085006 66 226 0.0 5.0 0.00 0.00 0.00 41 1015.7
20180919084505 67 247 1.0 6.0 0.00 0.00 0.00 41 1015.7
20180919084006 67 249 1.0 7.0 0.00 0.00 0.00 41 1015.7
20180919083506 68 238 2.0 7.0 0.00 0.00 0.00 40 1015.6
20180919083005 68 234 3.0 8.0 0.00 0.00 0.00 39 1015.6
20180919082005 68 220 2.0 8.0 0.00 0.00 0.00 40 1015.5
20180919081506 68 221 2.0 8.0 0.00 0.00 0.00 40 1015.4
20180919081006 68 220 3.0 9.0 0.00 0.00 0.00 40 1015.4
20180919080505 68 220 3.0 10.0 0.00 0.00 0.00 41 1015.5
20180919080006 68 225 3.0 10.0 0.00 0.00 0.00 42 1015.7
20180919075506 68 231 3.0 8.0 0.00 0.00 0.00 43 1015.7
20180919075005 67 235 3.0 9.0 0.00 0.00 0.00 43 1015.6
20180919074505 67 237 3.0 9.0 0.00 0.00 0.00 44 1015.6
20180919074006 66 240 2.0 9.0 0.00 0.00 0.00 45 1015.6
20180919073506 66 243 1.0 4.0 0.00 0.00 0.00 46 1015.9
20180919073006 67 233 0.0 3.0 0.00 0.00 0.00 46 1015.9
20180919072505 67 248 1.0 7.0 0.00 0.00 0.00 45 1016.0
20180919072005 67 249 1.0 7.0 0.00 0.00 0.00 45 1016.0
20180919071506 67 248 2.0 7.0 0.00 0.00 0.00 45 1015.9
20180919071006 68 247 2.0 7.0 0.00 0.00 0.00 45 1015.9
20180919070505 68 243 1.0 7.0 0.00 0.00 0.00 45 1015.9
20180919070006 68 240 1.0 5.0 0.00 0.00 0.00 45 1015.8
20180919065506 67 244 1.0 5.0 0.00 0.00 0.00 45 1016.0
20180919065005 67 240 0.0 4.0 0.00 0.00 0.00 44 1016.1
20180919064505 67 230 0.0 2.0 0.00 0.00 0.00 44 1016.0
20180919064006 68 0 0.0 0.0 0.00 0.00 0.00 43 1016.1
20180919063506 68 0 0.0 0.0 0.00 0.00 0.00 43 1015.9
20180919063005 68 0 0.0 0.0 0.00 0.00 0.00 42 1016.0
20180919062505 69 217 0.0 4.0 0.00 0.00 0.00 41 1016.0
20180919062005 69 205 0.0 4.0 0.00 0.00 0.00 41 1016.0
20180919061506 69 189 0.0 4.0 0.00 0.00 0.00 40 1016.0
20180919061006 70 193 0.0 4.0 0.00 0.00 0.00 40 1016.1
20180919060505 70 154 0.0 3.0 0.00 0.00 0.00 39 1016.1
20180919060006 70 145 0.0 3.0 0.00 0.00 0.00 39 1016.1
20180919055505 70 159 0.0 3.0 0.00 0.00 0.00 39 1016.2
20180919055006 70 168 0.0 3.0 0.00 0.00 0.00 38 1016.1
20180919054506 70 153 0.0 2.0 0.00 0.00 0.00 38 1016.1
20180919054005 70 174 0.0 3.0 0.00 0.00 0.00 37 1016.1
20180919053505 70 175 0.0 3.0 0.00 0.00 0.00 37 1016.2
20180919053006 70 179 0.0 1.0 0.00 0.00 0.00 36 1016.2
20180919052505 70 174 0.0 7.0 0.00 0.00 0.00 36 1016.2
20180919052005 70 172 0.0 7.0 0.00 0.00 0.00 36 1016.3
20180919051508 69 123 0.0 6.0 0.00 0.00 0.00 36 1016.3
20180919051006 68 122 0.0 6.0 0.00 0.00 0.00 38 1016.1
20180919050506 67 195 0.0 7.0 0.00 0.00 0.00 38 1016.3
20180919050006 67 195 0.0 7.0 0.00 0.00 0.00 39 1016.4
20180919045506 66 312 0.0 1.0 0.00 0.00 0.00 40 1016.1
20180919045006 67 312 0.0 1.0 0.00 0.00 0.00 39 1016.5
20180919044505 67 0 0.0 0.0 0.00 0.00 0.00 39 1016.5
20180919044005 68 0 0.0 0.0 0.00 0.00 0.00 39 1016.5
20180919043506 68 0 0.0 0.0 0.00 0.00 0.00 38 1016.6
20180919043006 68 0 0.0 0.0 0.00 0.00 0.00 38 1016.5
20180919042505 69 0 0.0 0.0 0.00 0.00 0.00 38 1016.6
20180919042006 69 0 0.0 0.0 0.00 0.00 0.00 38 1016.6
20180919041505 69 0 0.0 0.0 0.00 0.00 0.00 38 1016.6
20180919041010 70 1 0.0 1.0 0.00 0.00 0.00 37 1016.5
20180919040506 70 1 0.0 3.0 0.00 0.00 0.00 37 1016.5
20180919040006 70 1 0.0 3.0 0.00 0.00 0.00 37 1016.4
20180919035505 70 1 0.0 3.0 0.00 0.00 0.00 37 1016.4
20180919035006 70 1 0.0 1.0 0.00 0.00 0.00 38 1016.4
20180919034506 70 0 0.0 0.0 0.00 0.00 0.00 38 1016.4
20180919034006 70 1 0.0 4.0 0.00 0.00 0.00 38 1016.3
20180919033505 70 1 0.0 4.0 0.00 0.00 0.00 38 1016.4
20180919033006 69 1 0.0 4.0 0.00 0.00 0.00 38 1016.5
20180919032506 69 1 1.0 6.0 0.00 0.00 0.00 39 1016.3
20180919032005 69 1 1.0 6.0 0.00 0.00 0.00 39 1016.2
20180919031506 69 2 0.0 5.0 0.00 0.00 0.00 39 1016.3
20180919031006 69 1 1.0 6.0 0.00 0.00 0.00 39 1016.3
20180919030505 69 1 0.0 6.0 0.00 0.00 0.00 39 1016.2
20180919030005 69 1 0.0 4.0 0.00 0.00 0.00 38 1016.3
20180919025506 69 1 0.0 2.0 0.00 0.00 0.00 38 1016.4
20180919025006 70 1 0.0 2.0 0.00 0.00 0.00 38 1016.4
20180919024505 69 1 0.0 3.0 0.00 0.00 0.00 38 1016.4
20180919024006 69 1 0.0 3.0 0.00 0.00 0.00 39 1016.3
20180919023506 69 1 0.0 3.0 0.00 0.00 0.00 39 1016.3
20180919023006 70 1 0.0 3.0 0.00 0.00 0.00 38 1016.2
20180919022505 70 0 0.0 0.0 0.00 0.00 0.00 38 1016.1
20180919022006 70 116 0.0 4.0 0.00 0.00 0.00 38 1016.2
20180919021505 71 105 0.0 4.0 0.00 0.00 0.00 37 1016.0
20180919021006 71 87 0.0 5.0 0.00 0.00 0.00 37 1016.1
20180919020506 72 87 0.0 5.0 0.00 0.00 0.00 37 1016.0
20180919020005 72 87 0.0 4.0 0.00 0.00 0.00 36 1016.0
20180919015505 72 89 0.0 5.0 0.00 0.00 0.00 36 1016.0
20180919015006 73 84 1.0 5.0 0.00 0.00 0.00 35 1016.0
20180919014506 73 79 2.0 9.0 0.00 0.00 0.00 35 1016.0
20180919014005 74 80 3.0 9.0 0.00 0.00 0.00 34 1015.9
20180919013505 74 83 3.0 8.0 0.00 0.00 0.00 34 1015.9
20180919013006 75 83 4.0 9.0 0.00 0.00 0.00 33 1015.8
20180919012505 76 84 4.0 11.0 0.00 0.00 0.00 33 1015.9
20180919012006 76 86 5.0 11.0 0.00 0.00 0.00 33 1015.9
20180919011506 76 84 5.0 13.0 0.00 0.00 0.00 32 1015.8
20180919011005 77 83 6.0 13.0 0.00 0.00 0.00 32 1015.9
20180919010505 77 83 6.0 13.0 0.00 0.00 0.00 31 1015.8
20180919010006 78 84 5.0 13.0 0.00 0.00 0.00 31 1016.0
20180919005505 78 84 3.0 11.0 0.00 0.00 0.00 30 1015.7
20180919005005 78 85 4.0 11.0 0.00 0.00 0.00 29 1015.8
20180919004506 79 86 6.0 11.0 0.00 0.00 0.00 28 1015.6
20180919004006 79 82 7.0 15.0 0.00 0.00 0.00 28 1015.6
20180919003506 80 82 8.0 15.0 0.00 0.00 0.00 28 1015.6
20180919003006 80 84 4.0 14.0 0.00 0.00 0.00 27 1015.5
20180919002506 80 82 2.0 7.0 0.00 0.00 0.00 25 1015.5
20180919002006 82 86 3.0 9.0 0.00 0.00 0.00 20 1015.2
20180919001509 82 94 2.0 9.0 0.00 0.00 0.00 19 1015.2
20180919001006 82 97 2.0 9.0 0.00 0.00 0.00 19 1015.1
20180919000506 82 92 2.0 9.0 0.00 0.00 0.00 19 1015.0
20180919000005 82 97 3.0 10.0 0.00 0.00 0.00 21 1015.0
20180918235505 82 92 6.0 12.0 0.00 0.00 0.00 22 1015.2
20180918235006 83 89 7.0 12.0 0.00 0.00 0.00 22 1015.3
20180918234506 83 87 6.0 12.0 0.00 0.00 0.00 22 1015.3
20180918234006 83 81 8.0 14.0 0.00 0.00 0.00 22 1015.3
20180918233506 83 81 10.0 17.0 0.00 0.00 0.00 22 1015.3
20180918233006 84 80 10.0 17.0 0.00 0.00 0.00 22 1015.3
20180918232506 84 79 9.0 17.0 0.00 0.00 0.00 22 1015.3
20180918232006 83 81 9.0 16.0 0.00 0.00 0.00 23 1015.3
20180918231505 83 83 9.0 16.0 0.00 0.00 0.00 22 1015.4
20180918231005 84 83 8.0 15.0 0.00 0.00 0.00 22 1015.5
20180918230505 84 81 8.0 16.0 0.00 0.00 0.00 23 1015.5
20180918230012 83 80 8.0 16.0 0.00 0.00 0.00 24 1015.5
20180918225505 83 77 7.0 14.0 0.00 0.00 0.00 24 1015.5
20180918225009 83 75 8.0 17.0 0.00 0.00 0.00 24 1015.6
20180918224505 82 77 9.0 18.0 0.00 0.00 0.00 24 1015.6
20180918224006 83 75 11.0 18.0 0.00 0.00 0.00 24 1015.6
20180918223509 84 75 10.0 20.0 0.00 0.00 0.00 23 1015.8
20180918223008 85 76 9.0 20.0 0.00 0.00 0.00 24 1015.7
20180918222505 85 78 10.0 18.0 0.00 0.00 0.00 24 1015.8
20180918222006 84 83 10.0 17.0 0.00 0.00 0.00 25 1015.9
20180918221508 84 80 9.0 18.0 0.00 0.00 0.00 25 1016.0
20180918221010 84 79 9.0 18.0 0.00 0.00 0.00 25 1016.1
20180918220505 83 79 9.0 17.0 0.00 0.00 0.00 25 1016.1
20180918220006 83 72 9.0 18.0 0.00 0.00 0.00 26 1016.3
20180918215506 83 69 10.0 18.0 0.00 0.00 0.00 26 1016.5
20180918215008 84 75 9.0 19.0 0.00 0.00 0.00 26 1016.5
20180918214505 83 70 11.0 19.0 0.00 0.00 0.00 26 1016.7
20180918214006 84 66 10.0 19.0 0.00 0.00 0.00 26 1016.6
20180918213505 83 74 9.0 16.0 0.00 0.00 0.00 27 1016.6
20180918213005 82 75 8.0 16.0 0.00 0.00 0.00 27 1016.8
20180918212507 82 80 7.0 14.0 0.00 0.00 0.00 27 1016.9
20180918212006 82 75 8.0 16.0 0.00 0.00 0.00 27 1016.9
20180918211540 82 63 10.0 18.0 0.00 0.00 0.00 27 1017.0
20180918211015 83 63 11.0 18.0 0.00 0.00 0.00 27 1017.0
20180918210359 82 69 7.0 15.0 0.00 0.00 0.00 27 1017.3
20180918203005 84 75 5.0 12.0 0.00 0.00 0.00 25 1017.5
20180918202505 84 73 8.0 19.0 0.00 0.00 0.00 25 1017.8
20180918202006 84 69 9.0 19.0 0.00 0.00 0.00 26 1017.7
20180918201506 83 62 7.0 13.0 0.00 0.00 0.00 27 1017.7
20180918201006 84 48 5.0 13.0 0.00 0.00 0.00 25 1017.7
20180918200505 84 37 2.0 10.0 0.00 0.00 0.00 24 1017.7
20180918200006 84 41 3.0 9.0 0.00 0.00 0.00 24 1017.8
20180918195556 84 50 4.0 10.0 0.00 0.00 0.00 24 1017.8
20180918195005 83 51 6.0 14.0 0.00 0.00 0.00 25 1018.0
20180918194511 83 53 7.0 15.0 0.00 0.00 0.00 25 1018.1
20180918194006 84 63 5.0 15.0 0.00 0.00 0.00 25 1017.8
20180918193505 84 69 3.0 10.0 0.00 0.00 0.00 24 1018.0
20180918193005 84 66 2.0 7.0 0.00 0.00 0.00 24 1017.9
20180918192505 83 49 3.0 10.0 0.00 0.00 0.00 24 1018.1
20180918192006 83 56 2.0 10.0 0.00 0.00 0.00 24 1018.1
20180918191505 83 64 3.0 10.0 0.00 0.00 0.00 24 1018.1
20180918191006 83 55 4.0 11.0 0.00 0.00 0.00 24 1018.5
20180918190505 83 48 3.0 11.0 0.00 0.00 0.00 25 1018.5
20180918190005 83 32 3.0 10.0 0.00 0.00 0.00 25 1018.6
20180918185506 84 359 2.0 11.0 0.00 0.00 0.00 24 1018.5
20180918185006 84 11 0.0 11.0 0.00 0.00 0.00 24 1018.6
20180918184506 83 57 2.0 9.0 0.00 0.00 0.00 23 1018.7
20180918184005 82 42 4.0 12.0 0.00 0.00 0.00 24 1018.8
20180918183506 83 6 3.0 12.0 0.00 0.00 0.00 23 1018.8
20180918183006 83 1 2.0 6.0 0.00 0.00 0.00 25 1019.0
20180918182505 82 24 2.0 9.0 0.00 0.00 0.00 24 1019.1
20180918182005 82 330 3.0 10.0 0.00 0.00 0.00 24 1019.1
20180918181506 82 336 3.0 10.0 0.00 0.00 0.00 25 1019.2